Time;durP1;ratioP1;P1;durP2;ratioP2;P2;SDS_P1;SDS_P2;PMS_P1;PMS_P2;Temp;Humidity;BMP_temperature;BMP_pressure;BME280_temperature;BME280_humidity;BME280_pressure;Samples;Min_cycle;Max_cycle;Signal;HPM_P1;HPM_P2
2021/12/04 00:02:05;;;;;;;29.40;19.67;;;4.70;99.90;;;;;;5110218;28;20383;-81
2021/12/04 00:04:35;;;;;;;26.50;17.52;;;4.70;99.90;;;;;;5127243;28;20039;-81
2021/12/04 00:07:05;;;;;;;27.20;18.60;;;4.70;99.90;;;;;;5110511;28;20039;-80
2021/12/04 00:09:32;;;;;;;25.00;17.48;;;4.70;99.90;;;;;;5109791;28;20114;-82
2021/12/04 00:12:02;;;;;;;27.90;19.05;;;4.70;99.90;;;;;;5127842;28;20044;-81
2021/12/04 00:14:33;;;;;;;25.60;17.40;;;4.70;99.90;;;;;;5110111;28;20038;-81
2021/12/04 00:17:00;;;;;;;26.58;17.67;;;4.70;99.90;;;;;;5126631;28;20035;-80
2021/12/04 00:19:26;;;;;;;;;;;4.70;99.90;;;;;;5093838;28;20126;-81
2021/12/04 00:21:53;;;;;;;29.25;18.88;;;4.70;99.90;;;;;;5127675;28;19919;-81
2021/12/04 00:24:19;;;;;;;28.48;18.55;;;4.70;99.90;;;;;;5126780;28;20035;-81
2021/12/04 00:26:46;;;;;;;;;;;4.70;99.90;;;;;;5109405;28;20486;-81
2021/12/04 00:29:12;;;;;;;24.90;16.27;;;4.60;99.90;;;;;;5109544;28;20262;-81
2021/12/04 00:31:46;;;;;;;27.63;17.40;;;4.60;99.90;;;;;;5109560;28;20031;-81
2021/12/04 00:34:11;;;;;;;28.85;18.45;;;4.60;99.90;;;;;;5110126;28;20042;-81
2021/12/04 00:50:14;;;;;;;27.75;17.25;;;4.60;99.90;;;;;;5112672;27;20058;-81
2021/12/04 00:52:40;;;;;;;29.42;18.23;;;4.70;99.90;;;;;;5127490;28;20055;-81
2021/12/04 00:55:06;;;;;;;29.63;17.27;;;4.70;99.90;;;;;;5109369;28;20176;-82
2021/12/04 00:57:32;;;;;;;26.02;17.10;;;4.60;99.90;;;;;;5110449;28;20039;-81
2021/12/04 00:59:58;;;;;;;27.80;18.20;;;4.60;99.90;;;;;;5128714;27;20039;-81
2021/12/04 01:02:24;;;;;;;31.45;17.65;;;4.60;99.90;;;;;;5130393;27;20031;-82
2021/12/04 01:04:50;;;;;;;29.00;18.27;;;4.60;99.90;;;;;;5130019;27;20461;-82
2021/12/04 01:07:17;;;;;;;33.20;19.92;;;4.60;99.90;;;;;;5129831;27;20126;-81
2021/12/04 01:09:43;;;;;;;;;;;4.60;99.90;;;;;;5130404;27;20148;-82
2021/12/04 01:12:09;;;;;;;31.90;17.75;;;4.60;99.90;;;;;;5130751;27;19923;-82
2021/12/04 01:14:36;;;;;;;30.60;18.27;;;4.60;99.90;;;;;;5094614;27;20493;-81
2021/12/04 01:17:02;;;;;;;29.35;17.60;;;4.60;99.90;;;;;;5129884;27;20027;-82
2021/12/04 01:19:29;;;;;;;33.97;19.45;;;4.60;99.90;;;;;;5095257;27;20046;-81
2021/12/04 01:21:55;;;;;;;31.67;18.00;;;4.60;99.90;;;;;;5086470;27;20039;-81
2021/12/04 01:24:21;;;;;;;;;;;4.60;99.90;;;;;;5128957;27;20071;-82
2021/12/04 01:26:48;;;;;;;31.17;17.85;;;4.60;99.90;;;;;;5113180;27;20326;-81
2021/12/04 01:29:14;;;;;;;29.35;17.52;;;4.60;99.90;;;;;;5095656;27;20062;-81
2021/12/04 01:31:41;;;;;;;32.00;18.55;;;4.60;99.90;;;;;;5113007;27;20074;-82
2021/12/04 01:34:06;;;;;;;31.30;18.20;;;4.60;99.90;;;;;;5130085;27;20091;-82
2021/12/04 01:36:33;;;;;;;31.88;19.00;;;4.60;99.90;;;;;;5086979;27;20031;-82
2021/12/04 01:38:58;;;;;;;28.02;16.67;;;4.60;99.90;;;;;;5087927;27;20047;-82
2021/12/04 01:41:25;;;;;;;28.88;16.10;;;4.60;99.90;;;;;;5129348;27;20466;-82
2021/12/04 01:43:50;;;;;;;28.40;16.38;;;4.60;99.90;;;;;;5129363;27;20478;-82
2021/12/04 01:46:16;;;;;;;28.77;16.45;;;4.50;99.90;;;;;;5129565;27;20045;-82
2021/12/04 01:48:42;;;;;;;26.50;14.98;;;4.60;99.90;;;;;;5089043;27;20416;-82
2021/12/04 01:51:07;;;;;;;31.23;17.33;;;4.50;99.90;;;;;;5112499;27;20045;-82
2021/12/04 01:53:33;;;;;;;27.73;15.63;;;4.50;99.90;;;;;;5129860;27;20134;-82
2021/12/04 01:56:00;;;;;;;30.15;17.17;;;4.60;99.90;;;;;;5128332;27;20043;-82
2021/12/04 01:58:27;;;;;;;30.13;16.88;;;4.60;99.90;;;;;;5129242;27;20390;-82
2021/12/04 02:00:53;;;;;;;26.50;14.88;;;4.60;99.90;;;;;;5129993;27;20146;-82
2021/12/04 02:03:19;;;;;;;25.13;14.15;;;4.50;99.90;;;;;;5129134;27;20591;-82
2021/12/04 02:05:47;;;;;;;25.13;14.43;;;4.50;99.90;;;;;;5128852;27;20046;-82
2021/12/04 02:08:15;;;;;;;25.38;14.55;;;4.60;99.90;;;;;;5129242;27;20047;-82
2021/12/04 02:10:41;;;;;;;25.92;14.45;;;4.60;99.90;;;;;;5128373;27;20054;-81
2021/12/04 02:13:07;;;;;;;26.88;14.70;;;4.50;99.90;;;;;;5111492;27;20050;-81
2021/12/04 02:15:33;;;;;;;28.52;15.88;;;4.60;99.90;;;;;;5128946;27;20039;-82
2021/12/04 02:17:59;;;;;;;26.60;15.10;;;4.50;99.90;;;;;;5102035;27;20028;-82
2021/12/04 02:20:28;;;;;;;26.70;14.90;;;4.50;99.90;;;;;;5111915;27;20031;-82
2021/12/04 02:22:54;;;;;;;27.63;15.70;;;4.50;99.90;;;;;;5128769;27;20050;-82
2021/12/04 02:25:20;;;;;;;;;;;4.60;99.90;;;;;;5113210;27;20050;-81
2021/12/04 02:27:47;;;;;;;25.35;14.98;;;4.60;99.90;;;;;;5128271;27;20278;-82
2021/12/04 02:30:19;;;;;;;31.38;16.13;;;4.60;99.90;;;;;;5128336;27;20031;-81
2021/12/04 02:32:46;;;;;;;27.77;14.82;;;4.50;99.90;;;;;;5111545;27;20039;-81
2021/12/04 02:35:11;;;;;;;;;;;4.50;99.90;;;;;;5127606;27;20085;-82
2021/12/04 02:37:38;;;;;;;28.30;16.83;;;4.50;99.90;;;;;;5128386;27;19954;-81
2021/12/04 02:40:07;;;;;;;28.17;15.05;;;4.50;99.90;;;;;;5128176;27;20069;-81
2021/12/04 02:42:33;;;;;;;24.15;13.75;;;4.50;99.90;;;;;;5110245;27;20042;-81
2021/12/04 02:45:01;;;;;;;23.40;13.32;;;4.50;99.90;;;;;;5111677;27;20039;-81
2021/12/04 02:47:28;;;;;;;25.92;13.15;;;4.50;99.90;;;;;;5127543;27;20035;-81
2021/12/04 02:49:55;;;;;;;27.13;14.65;;;4.50;99.90;;;;;;5114743;27;20775;-80
2021/12/04 02:52:21;;;;;;;27.63;14.80;;;4.50;99.90;;;;;;5111164;27;20402;-80
2021/12/04 02:54:47;;;;;;;;;;;4.50;99.90;;;;;;5128592;27;20043;-80
2021/12/04 02:57:15;;;;;;;26.40;14.40;;;4.50;99.90;;;;;;5128496;27;20009;-80
2021/12/04 02:59:42;;;;;;;29.00;14.95;;;4.50;99.90;;;;;;5128747;27;20047;-80
2021/12/04 03:02:16;;;;;;;26.25;13.63;;;4.50;99.90;;;;;;5083442;27;20051;-81
2021/12/04 03:04:42;;;;;;;22.38;12.95;;;4.50;99.90;;;;;;5127546;27;20125;-81
2021/12/04 03:07:08;;;;;;;25.33;13.40;;;4.50;99.90;;;;;;5127246;27;20183;-81
2021/12/04 03:09:35;;;;;;;26.52;14.85;;;4.50;99.90;;;;;;5111286;27;20155;-81
2021/12/04 03:12:05;;;;;;;29.05;14.32;;;4.50;99.90;;;;;;5127542;27;20453;-81
2021/12/04 03:14:31;;;;;;;29.38;15.75;;;4.50;99.90;;;;;;5110061;27;20046;-81
2021/12/04 03:16:57;;;;;;;22.00;12.93;;;4.50;99.90;;;;;;5125746;27;20046;-81
2021/12/04 03:19:24;;;;;;;27.30;12.70;;;4.50;99.90;;;;;;5127004;27;20122;-81
2021/12/04 03:21:50;;;;;;;;;;;4.50;99.90;;;;;;5125930;27;20046;-81
2021/12/04 03:24:17;;;;;;;23.35;12.63;;;4.50;99.90;;;;;;5127549;27;19967;-81
2021/12/04 03:26:45;;;;;;;27.50;14.75;;;4.50;99.90;;;;;;5091859;27;20047;-80
2021/12/04 03:29:13;;;;;;;25.55;15.00;;;4.50;99.90;;;;;;5125791;27;20050;-81
2021/12/04 03:42:32;;;;;;;23.42;13.68;;;4.50;99.90;;;;;;5112192;28;20401;-81
2021/12/04 03:44:58;;;;;;;21.95;13.25;;;4.50;99.90;;;;;;5126545;27;20035;-81
2021/12/04 03:47:23;;;;;;;24.63;14.17;;;4.50;99.90;;;;;;5127408;28;20379;-81
2021/12/04 03:49:50;;;;;;;23.88;14.40;;;4.50;99.90;;;;;;5109838;28;20320;-81
2021/12/04 03:52:16;;;;;;;21.35;12.27;;;4.50;99.90;;;;;;5127881;28;20039;-81
2021/12/04 03:54:43;;;;;;;22.15;12.45;;;4.50;99.90;;;;;;5109875;28;20390;-81
2021/12/04 03:57:12;;;;;;;20.73;12.57;;;4.40;99.90;;;;;;5109437;28;20062;-81
2021/12/04 03:59:41;;;;;;;24.13;13.27;;;4.40;99.90;;;;;;5099873;28;20131;-80
2021/12/04 04:02:09;;;;;;;19.73;11.95;;;4.50;99.90;;;;;;5110422;28;20038;-81
2021/12/04 04:04:35;;;;;;;21.48;11.77;;;4.50;99.90;;;;;;5125196;27;20035;-81
2021/12/04 04:07:01;;;;;;;21.70;12.00;;;4.40;99.90;;;;;;5125633;28;20465;-81
2021/12/04 04:09:28;;;;;;;18.10;10.82;;;4.50;99.90;;;;;;5108948;28;20046;-81
2021/12/04 04:11:54;;;;;;;19.23;12.32;;;4.40;99.90;;;;;;5109370;28;20035;-81
2021/12/04 04:14:20;;;;;;;18.08;10.95;;;4.50;99.90;;;;;;5124443;28;20039;-81
2021/12/04 04:16:46;;;;;;;17.67;11.60;;;4.40;99.90;;;;;;5106614;28;20031;-80
2021/12/04 04:19:12;;;;;;;21.65;11.88;;;4.50;99.90;;;;;;5107840;28;20027;-81
2021/12/04 04:21:41;;;;;;;22.10;12.07;;;4.40;99.90;;;;;;5087807;28;20130;-81
2021/12/04 04:24:16;;;;;;;16.30;10.23;;;4.40;99.90;;;;;;5143315;27;20031;-81
2021/12/04 04:26:43;;;;;;;17.23;10.23;;;4.40;99.90;;;;;;5108112;28;20114;-80
2021/12/04 04:29:10;;;;;;;18.55;11.27;;;4.40;99.90;;;;;;5109120;28;20046;-81
2021/12/04 04:31:46;;;;;;;20.58;12.30;;;4.40;99.90;;;;;;5109042;28;20106;-81
2021/12/04 04:34:22;;;;;;;17.70;11.70;;;4.40;99.90;;;;;;5095435;27;20883;-81
2021/12/04 04:37:04;;;;;;;18.40;10.73;;;4.40;99.90;;;;;;5099262;27;20054;-80
2021/12/04 05:14:38;;;;;;;16.95;10.02;;;4.40;99.90;;;;;;5129281;27;20115;-81
2021/12/04 05:17:14;;;;;;;18.83;10.55;;;4.40;99.90;;;;;;5112149;27;20424;-81
2021/12/04 05:22:10;;;;;;;16.02;9.35;;;4.40;99.90;;;;;;5130287;27;20122;-81
2021/12/04 05:24:36;;;;;;;18.80;10.80;;;4.40;99.90;;;;;;5129552;27;20126;-80
2021/12/04 05:27:02;;;;;;;15.15;9.48;;;4.40;99.90;;;;;;5129750;27;20103;-81
2021/12/04 05:29:28;;;;;;;17.85;10.57;;;4.40;99.90;;;;;;5111672;27;20082;-81
2021/12/04 05:31:54;;;;;;;15.60;9.43;;;4.40;99.90;;;;;;5112200;27;20027;-81
2021/12/04 05:34:20;;;;;;;17.25;10.52;;;4.40;99.90;;;;;;5129240;27;20131;-81
2021/12/04 05:36:45;;;;;;;17.77;9.85;;;4.40;99.90;;;;;;5112623;27;20108;-81
2021/12/04 05:39:12;;;;;;;17.40;9.55;;;4.40;99.90;;;;;;5129786;27;20043;-80
2021/12/04 05:41:38;;;;;;;18.75;10.18;;;4.40;99.90;;;;;;5129352;27;20043;-81
2021/12/04 05:44:07;;;;;;;16.85;9.80;;;4.40;99.90;;;;;;5129643;27;20038;-81
2021/12/04 05:46:40;;;;;;;18.65;10.93;;;4.40;99.90;;;;;;5112945;27;20142;-81
2021/12/04 05:56:59;;;;;;;18.90;11.05;;;4.40;99.90;;;;;;5097605;27;20039;-81
2021/12/04 05:59:30;;;;;;;18.67;10.70;;;4.40;99.90;;;;;;5128563;27;20039;-80
2021/12/04 06:01:56;;;;;;;15.43;9.93;;;4.40;99.90;;;;;;5094548;27;20035;-81
2021/12/04 06:04:22;;;;;;;18.17;10.38;;;4.50;99.90;;;;;;5129100;27;20035;-81
2021/12/04 06:06:48;;;;;;;13.45;8.32;;;4.40;99.90;;;;;;5111269;27;20038;-80
2021/12/04 06:09:14;;;;;;;16.42;9.73;;;4.40;99.90;;;;;;5112202;27;20386;-81
2021/12/04 06:11:39;;;;;;;18.08;10.02;;;4.30;99.90;;;;;;5111328;27;20047;-80
2021/12/04 06:14:05;;;;;;;18.15;9.80;;;4.40;99.90;;;;;;5128966;27;20039;-80
2021/12/04 06:16:31;;;;;;;15.07;8.50;;;4.30;99.90;;;;;;5111923;27;20043;-80
2021/12/04 06:19:05;;;;;;;16.17;9.85;;;4.40;99.90;;;;;;5129000;27;20139;-81
2021/12/04 06:24:15;;;;;;;16.08;8.68;;;4.40;99.90;;;;;;5130931;27;20050;-81
2021/12/04 06:26:41;;;;;;;16.02;10.00;;;4.40;99.90;;;;;;5111907;27;20051;-81
2021/12/04 06:29:06;;;;;;;19.40;11.10;;;4.40;99.90;;;;;;5112224;27;20116;-81
2021/12/04 06:31:32;;;;;;;17.75;10.25;;;4.30;99.90;;;;;;5112015;27;20394;-81
2021/12/04 06:33:58;;;;;;;15.65;9.02;;;4.40;99.90;;;;;;5127371;27;20419;-80
2021/12/04 06:36:25;;;;;;;16.50;9.45;;;4.40;99.90;;;;;;5128319;27;20105;-80
2021/12/04 06:38:51;;;;;;;;;;;4.30;99.90;;;;;;5111859;27;20051;-80
2021/12/04 06:41:17;;;;;;;18.70;10.30;;;4.30;99.90;;;;;;5111105;27;20332;-80
2021/12/04 06:43:50;;;;;;;18.40;10.43;;;4.40;99.90;;;;;;5094489;27;20115;-81
2021/12/04 06:46:19;;;;;;;20.33;10.25;;;4.30;99.90;;;;;;5128562;27;20449;-80
2021/12/04 06:53:51;;;;;;;16.85;9.57;;;4.30;99.90;;;;;;5111671;27;20790;-81
2021/12/04 06:56:18;;;;;;;19.27;10.95;;;4.40;99.90;;;;;;5109372;27;20476;-80
2021/12/04 06:58:44;;;;;;;21.65;11.95;;;4.40;99.90;;;;;;5125089;27;20042;-80
2021/12/04 07:01:10;;;;;;;20.17;10.50;;;4.30;99.90;;;;;;5088768;27;20158;-80
2021/12/04 07:03:37;;;;;;;19.25;10.40;;;4.30;99.90;;;;;;5106780;27;20454;-80
2021/12/04 07:06:04;;;;;;;15.85;9.15;;;4.40;99.90;;;;;;5124022;27;20131;-80
2021/12/04 07:08:29;;;;;;;21.38;11.30;;;4.30;99.90;;;;;;5107117;27;20071;-80
2021/12/04 07:10:55;;;;;;;18.90;11.05;;;4.40;99.90;;;;;;5125580;27;20050;-80
2021/12/04 07:13:21;;;;;;;19.58;10.15;;;4.40;99.90;;;;;;5111080;27;20039;-80
2021/12/04 07:15:47;;;;;;;21.85;10.80;;;4.40;99.90;;;;;;5110105;27;20112;-80
2021/12/04 07:18:14;;;;;;;22.13;12.45;;;4.30;99.90;;;;;;5111674;27;20035;-82
2021/12/04 07:20:40;;;;;;;19.27;10.95;;;4.30;99.90;;;;;;5128307;27;20145;-82
2021/12/04 07:23:06;;;;;;;17.83;10.10;;;4.40;99.90;;;;;;5110006;27;20534;-81
2021/12/04 07:25:32;;;;;;;22.70;12.13;;;4.40;99.90;;;;;;5127600;27;20130;-81
2021/12/04 07:27:59;;;;;;;20.98;11.02;;;4.40;99.90;;;;;;5127197;27;20042;-83
2021/12/04 07:30:25;;;;;;;17.90;10.75;;;4.30;99.90;;;;;;5094886;27;21809;-80
2021/12/04 07:32:51;;;;;;;20.52;10.77;;;4.30;99.90;;;;;;5126532;27;20049;-82
2021/12/04 07:35:17;;;;;;;;;;;4.30;99.90;;;;;;5127585;27;20050;-81
2021/12/04 07:37:44;;;;;;;21.67;11.27;;;4.30;99.90;;;;;;5093157;27;19926;-81
2021/12/04 07:40:11;;;;;;;20.52;11.45;;;4.30;99.90;;;;;;5126807;27;20244;-86
2021/12/04 07:42:37;;;;;;;20.38;10.73;;;4.30;99.90;;;;;;5126875;27;20167;-79
2021/12/04 07:45:04;;;;;;;23.02;12.27;;;4.30;99.90;;;;;;5126917;27;20069;-80
2021/12/04 07:47:30;;;;;;;18.58;10.43;;;4.30;99.90;;;;;;5101918;28;20050;-79
2021/12/04 07:49:56;;;;;;;22.30;11.93;;;4.30;99.90;;;;;;5109330;28;20043;-79
2021/12/04 07:52:22;;;;;;;17.52;11.23;;;4.40;99.90;;;;;;5092812;28;20453;-79
2021/12/04 07:54:49;;;;;;;19.52;10.68;;;4.30;99.90;;;;;;5093092;27;20084;-79
2021/12/04 07:57:16;;;;;;;20.45;11.05;;;4.40;99.90;;;;;;5108527;28;20039;-79
2021/12/04 07:59:42;;;;;;;18.38;10.75;;;4.40;99.90;;;;;;5108915;28;20050;-79
2021/12/04 08:02:08;;;;;;;20.30;11.65;;;4.40;99.90;;;;;;5124839;27;20046;-79
2021/12/04 08:04:33;;;;;;;19.42;10.60;;;4.40;99.90;;;;;;5121573;27;20482;-79
2021/12/04 08:06:59;;;;;;;18.45;10.48;;;4.30;99.90;;;;;;5091011;28;20054;-80
2021/12/04 08:09:25;;;;;;;19.98;11.35;;;4.40;99.90;;;;;;5111517;27;20522;-80
2021/12/04 08:11:51;;;;;;;20.60;11.15;;;4.40;99.90;;;;;;5112941;27;20030;-80
2021/12/04 08:14:19;;;;;;;18.27;10.05;;;4.30;99.90;;;;;;5095532;27;20160;-79
2021/12/04 08:16:47;;;;;;;17.40;9.30;;;4.40;99.90;;;;;;5129432;27;20506;-79
2021/12/04 08:19:13;;;;;;;21.08;10.68;;;4.40;99.90;;;;;;5115621;27;20091;-79
2021/12/04 08:21:39;;;;;;;19.10;9.85;;;4.40;99.90;;;;;;5132357;27;20553;-80
2021/12/04 08:24:06;;;;;;;19.23;11.07;;;4.40;99.90;;;;;;5090496;27;20149;-79
2021/12/04 08:26:34;;;;;;;20.20;10.73;;;4.40;99.90;;;;;;5130353;27;20134;-79
2021/12/04 08:28:59;;;;;;;17.58;10.18;;;4.40;99.90;;;;;;5094281;27;20122;-79
2021/12/04 08:31:25;;;;;;;18.00;10.13;;;4.40;99.90;;;;;;5093888;27;20183;-79
2021/12/04 08:33:51;;;;;;;16.08;9.23;;;4.40;99.90;;;;;;5112907;27;20039;-83
2021/12/04 08:36:16;;;;;;;17.98;9.73;;;4.40;99.90;;;;;;5096079;27;20439;-82
2021/12/04 08:38:46;;;;;;;19.00;10.45;;;4.40;99.90;;;;;;5128646;27;20039;-83
2021/12/04 08:41:17;;;;;;;18.05;10.23;;;4.50;99.90;;;;;;5096943;27;20035;-83
2021/12/04 08:43:43;;;;;;;16.27;9.82;;;4.50;99.90;;;;;;5131168;27;20027;-83
2021/12/04 08:46:09;;;;;;;16.80;10.38;;;4.40;99.90;;;;;;5128807;27;20602;-82
2021/12/04 08:48:35;;;;;;;15.93;10.23;;;4.50;99.90;;;;;;5127187;27;20418;-80
2021/12/04 08:51:02;;;;;;;17.58;10.68;;;4.50;99.90;;;;;;5109906;27;20149;-80
2021/12/04 08:53:28;;;;;;;16.60;9.80;;;4.40;99.90;;;;;;5111485;27;20058;-82
2021/12/04 08:55:54;;;;;;;16.48;10.43;;;4.40;99.90;;;;;;5094246;27;20047;-82
2021/12/04 08:58:20;;;;;;;16.02;9.60;;;4.50;99.90;;;;;;5126747;27;20036;-82
2021/12/04 09:00:57;;;;;;;14.45;7.95;;;4.50;99.90;;;;;;5128544;27;20050;-82
2021/12/04 09:03:33;;;;;;;11.35;6.70;;;4.50;99.90;;;;;;5108405;27;20031;-83
2021/12/04 09:05:59;;;;;;;15.00;8.30;;;4.50;99.90;;;;;;5127875;27;20035;-83
2021/12/04 09:08:26;;;;;;;;;;;4.50;99.90;;;;;;5094286;27;20098;-82
2021/12/04 09:10:55;;;;;;;15.02;8.73;;;4.50;99.90;;;;;;5131545;27;19954;-83
2021/12/04 09:13:22;;;;;;;15.40;8.45;;;4.50;99.90;;;;;;5129390;27;20086;-81
2021/12/04 09:15:48;;;;;;;17.90;9.25;;;4.50;99.90;;;;;;5129389;27;20074;-80
2021/12/04 09:18:14;;;;;;;12.98;8.13;;;4.50;99.90;;;;;;5111038;27;20059;-79
2021/12/04 09:20:40;;;;;;;13.88;8.02;;;4.50;99.90;;;;;;5111608;27;20046;-79
2021/12/04 09:23:12;;;;;;;11.93;7.03;;;4.50;99.90;;;;;;5113125;27;20039;-80
2021/12/04 09:25:41;;;;;;;12.10;7.63;;;4.50;99.90;;;;;;5113211;27;20142;-79
2021/12/04 09:28:29;;;;;;;14.60;8.50;;;4.60;99.90;;;;;;5083219;27;20492;-80
2021/12/04 09:31:16;;;;;;;13.75;8.02;;;4.50;99.90;;;;;;5129703;27;20080;-82
2021/12/04 10:00:53;;;;;;;9.32;6.45;;;4.70;99.90;;;;;;5110674;27;20342;-82
2021/12/04 10:33:40;;;;;;;9.73;6.82;;;5.00;99.90;;;;;;5124097;27;20039;-83
2021/12/04 10:36:06;;;;;;;10.43;7.20;;;5.00;99.90;;;;;;5122544;27;20519;-83
2021/12/04 10:38:40;;;;;;;9.77;7.65;;;5.00;99.90;;;;;;5106421;27;20184;-82
2021/12/04 10:41:06;;;;;;;8.05;6.35;;;5.00;99.90;;;;;;5126585;27;20118;-82
2021/12/04 10:43:32;;;;;;;9.52;6.85;;;5.00;99.90;;;;;;5108229;27;20183;-84
2021/12/04 10:46:02;;;;;;;9.43;7.10;;;5.00;99.90;;;;;;5127126;27;20142;-84
2021/12/04 10:48:30;;;;;;;9.32;6.90;;;5.10;99.90;;;;;;5127956;27;20881;-83
2021/12/04 10:53:48;;;;;;;9.10;6.32;;;5.20;99.90;;;;;;5127306;27;20054;-81
2021/12/04 11:07:25;;;;;;;10.27;7.15;;;5.30;99.90;;;;;;5124571;27;20060;-81
2021/12/04 11:43:29;;;;;;;9.32;6.18;;;5.30;99.90;;;;;;5123132;27;20394;-81
2021/12/04 11:48:38;;;;;;;8.75;6.22;;;5.30;99.90;;;;;;5122864;27;20074;-82
2021/12/04 11:51:10;;;;;;;8.68;6.30;;;5.30;99.90;;;;;;5107306;28;20431;-82
2021/12/04 11:53:36;;;;;;;10.50;7.85;;;5.40;99.90;;;;;;5123255;28;20335;-81
2021/12/04 11:56:02;;;;;;;11.05;7.18;;;5.40;99.90;;;;;;5106264;28;20040;-81
2021/12/04 11:58:40;;;;;;;12.43;7.90;;;5.40;99.90;;;;;;5105690;28;20031;-82
2021/12/04 12:01:19;;;;;;;10.15;6.97;;;5.40;99.90;;;;;;5124292;28;20062;-81
2021/12/04 12:03:55;;;;;;;10.70;7.53;;;5.40;99.90;;;;;;5123355;28;20042;-82
2021/12/04 12:06:37;;;;;;;10.77;7.70;;;5.40;99.90;;;;;;5107209;28;20373;-81
2021/12/04 12:09:15;;;;;;;12.25;7.70;;;5.30;99.90;;;;;;5124322;27;20059;-81
2021/12/04 12:11:56;;;;;;;11.20;7.40;;;5.40;99.90;;;;;;5106954;28;20056;-81
2021/12/04 12:14:36;;;;;;;11.07;7.78;;;5.40;99.90;;;;;;5123139;28;20039;-81
2021/12/04 12:17:02;;;;;;;8.75;6.07;;;5.40;99.90;;;;;;5123279;28;20490;-81
2021/12/04 12:19:36;;;;;;;11.27;7.57;;;5.30;99.90;;;;;;5105663;28;20036;-81
2021/12/04 12:22:21;;;;;;;10.82;7.03;;;5.30;99.90;;;;;;5124088;28;20035;-81
2021/12/04 12:33:31;;;;;;;14.75;8.82;;;5.30;99.90;;;;;;5123718;27;20051;-82
2021/12/04 12:36:14;;;;;;;12.80;7.55;;;5.30;99.90;;;;;;5123721;27;20630;-82
2021/12/04 12:38:52;;;;;;;13.70;9.18;;;5.40;99.90;;;;;;5124260;28;20046;-82
2021/12/04 12:41:23;;;;;;;11.82;7.85;;;5.40;99.90;;;;;;5123640;28;21732;-82
2021/12/04 12:43:52;;;;;;;13.63;8.35;;;5.50;99.90;;;;;;5123644;28;20027;-82
2021/12/04 12:46:18;;;;;;;13.27;8.52;;;5.40;99.90;;;;;;5122841;28;20091;-82
2021/12/04 12:48:49;;;;;;;;;;;5.40;99.90;;;;;;5073823;28;20126;-82
2021/12/04 12:51:23;;;;;;;12.20;7.88;;;5.40;99.90;;;;;;5106678;28;19932;-82
2021/12/04 12:53:49;;;;;;;11.00;7.20;;;5.40;99.90;;;;;;5123574;27;20079;-81
2021/12/04 12:56:16;;;;;;;11.48;7.03;;;5.40;99.90;;;;;;5108840;27;20139;-81
2021/12/04 12:58:50;;;;;;;11.90;7.72;;;5.40;99.90;;;;;;5109538;27;20038;-81
2021/12/04 13:12:50;;;;;;;13.73;8.18;;;5.30;99.90;;;;;;5127063;27;20047;-81
2021/12/04 13:15:33;;;;;;;17.40;10.55;;;5.30;99.90;;;;;;5126738;27;20043;-81
2021/12/04 13:18:16;;;;;;;17.23;10.63;;;5.30;99.90;;;;;;5127341;27;20454;-82
2021/12/04 13:20:43;;;;;;;17.15;10.45;;;5.30;99.90;;;;;;5145152;27;20386;-81
2021/12/04 13:23:12;;;;;;;14.00;8.68;;;5.20;99.90;;;;;;5127345;27;20039;-81
2021/12/04 13:25:38;;;;;;;16.25;9.30;;;5.30;99.90;;;;;;5126740;27;20058;-81
2021/12/04 13:30:42;;;;;;;18.52;11.18;;;5.30;99.90;;;;;;5125759;27;20047;-82
2021/12/04 13:33:08;;;;;;;14.80;9.18;;;5.20;99.90;;;;;;5109692;27;20042;-80
2021/12/04 13:35:35;;;;;;;18.85;10.85;;;5.20;99.90;;;;;;5108251;27;20078;-81
2021/12/04 13:38:03;;;;;;;18.00;10.80;;;5.30;99.90;;;;;;5109280;27;20050;-81
2021/12/04 13:40:29;;;;;;;19.88;11.70;;;5.30;99.90;;;;;;5143332;27;20042;-80
2021/12/04 13:42:55;;;;;;;17.95;10.82;;;5.20;99.90;;;;;;5109321;27;20043;-81
2021/12/04 13:45:22;;;;;;;22.65;11.52;;;5.30;99.90;;;;;;5126577;27;20035;-81
2021/12/04 13:47:52;;;;;;;19.10;10.93;;;5.20;99.90;;;;;;5108882;27;20484;-80
2021/12/04 13:51:02;;;;;;;21.92;12.23;;;5.30;99.90;;;;;;5109201;27;20043;-81
2021/12/04 13:53:19;;;;;;;17.00;10.82;;;5.30;99.90;;;;;;5114908;27;20047;-81
2021/12/04 13:55:50;;;;;;;21.85;11.82;;;5.30;99.90;;;;;;5127278;27;20120;-81
2021/12/04 13:58:16;;;;;;;18.40;10.73;;;5.20;99.90;;;;;;5125233;27;20129;-81
2021/12/04 14:00:44;;;;;;;20.33;11.05;;;5.30;99.90;;;;;;5091667;27;20127;-81
2021/12/04 14:03:10;;;;;;;25.45;13.35;;;5.20;99.90;;;;;;5108777;27;20035;-81
2021/12/04 14:05:36;;;;;;;22.25;12.75;;;5.30;99.90;;;;;;5108275;27;20039;-81
2021/12/04 14:08:03;;;;;;;25.52;13.77;;;5.20;99.90;;;;;;5092062;27;20134;-81
2021/12/04 14:10:32;;;;;;;24.20;13.25;;;5.20;99.90;;;;;;5125629;27;20660;-81
2021/12/04 14:13:01;;;;;;;27.15;13.05;;;5.20;99.90;;;;;;5125664;27;20200;-81
2021/12/04 14:15:27;;;;;;;25.55;13.85;;;5.20;99.90;;;;;;5142110;27;20524;-81
2021/12/04 14:17:59;;;;;;;23.02;12.48;;;5.20;99.90;;;;;;5084157;27;20075;-81
2021/12/04 14:20:27;;;;;;;18.23;9.85;;;5.20;99.90;;;;;;5126219;27;20126;-81
2021/12/04 14:22:54;;;;;;;23.27;11.45;;;5.20;99.90;;;;;;5125963;27;20035;-81
2021/12/04 14:25:22;;;;;;;22.27;11.95;;;5.20;99.90;;;;;;5124998;27;20553;-81
2021/12/04 14:27:49;;;;;;;25.50;13.93;;;5.20;99.90;;;;;;5127789;27;20070;-80
2021/12/04 14:30:21;;;;;;;28.88;14.63;;;5.20;99.90;;;;;;5142650;27;20039;-80
2021/12/04 14:32:53;;;;;;;23.80;13.05;;;5.20;99.90;;;;;;5109001;27;20485;-81
2021/12/04 14:35:20;;;;;;;26.40;13.98;;;5.30;99.90;;;;;;5126046;27;20046;-81
2021/12/04 14:37:52;;;;;;;24.33;12.65;;;5.20;99.90;;;;;;5107548;27;20051;-81
2021/12/04 14:40:25;;;;;;;24.15;12.30;;;5.20;99.90;;;;;;5124729;27;20058;-81
2021/12/04 14:42:51;;;;;;;21.73;11.85;;;5.20;99.90;;;;;;5125051;27;20400;-81
2021/12/04 14:45:22;;;;;;;;;;;5.20;99.90;;;;;;5124615;27;20066;-82
2021/12/04 14:48:00;;;;;;;23.23;11.05;;;5.20;99.90;;;;;;5124637;27;20389;-81
2021/12/04 14:50:26;;;;;;;24.48;13.70;;;5.20;99.90;;;;;;5124868;27;20124;-81
2021/12/04 14:52:55;;;;;;;21.08;11.70;;;5.20;99.90;;;;;;5125107;27;20043;-81
2021/12/04 14:55:30;;;;;;;19.75;10.00;;;5.10;99.90;;;;;;5125018;27;20138;-82
2021/12/04 14:57:57;;;;;;;21.27;11.60;;;5.20;99.90;;;;;;5142260;27;20039;-81
2021/12/04 15:00:25;;;;;;;;;;;5.20;99.90;;;;;;5126055;27;21464;-81
2021/12/04 15:02:54;;;;;;;25.17;12.95;;;5.10;99.90;;;;;;5107586;27;19940;-81
2021/12/04 15:05:45;;;;;;;22.13;11.55;;;5.10;99.90;;;;;;5107712;27;20434;-81
2021/12/04 15:08:24;;;;;;;28.90;14.43;;;5.20;99.90;;;;;;5125489;27;20538;-81
2021/12/04 15:11:11;;;;;;;34.00;15.93;;;5.10;99.90;;;;;;5107188;27;20497;-81
2021/12/04 15:13:42;;;;;;;25.23;13.07;;;5.10;99.90;;;;;;5124578;27;20122;-81
2021/12/04 15:16:12;;;;;;;26.73;13.05;;;5.10;99.90;;;;;;5125166;27;20567;-81
2021/12/04 15:18:39;;;;;;;29.80;14.93;;;5.10;99.90;;;;;;5107204;27;20070;-81
2021/12/04 15:21:14;;;;;;;27.27;14.65;;;5.10;99.90;;;;;;5107806;27;20039;-80
2021/12/04 15:23:45;;;;;;;25.85;12.82;;;5.20;99.90;;;;;;5125032;27;20062;-81
2021/12/04 15:26:19;;;;;;;26.88;13.88;;;5.10;99.90;;;;;;5124636;27;20043;-82
2021/12/04 15:28:51;;;;;;;27.77;13.70;;;5.20;99.90;;;;;;5125064;27;20126;-81
2021/12/04 15:31:19;;;;;;;28.45;14.85;;;5.10;99.90;;;;;;5123906;27;20035;-81
2021/12/04 15:33:48;;;;;;;24.00;11.45;;;5.10;99.90;;;;;;5124748;27;20031;-81
2021/12/04 15:36:44;;;;;;;23.42;11.43;;;5.10;99.90;;;;;;5106821;27;20035;-81
2021/12/04 15:39:31;;;;;;;26.33;13.50;;;5.10;99.90;;;;;;5123355;27;20051;-81
2021/12/04 15:50:39;;;;;;;27.83;14.73;;;5.10;99.90;;;;;;5091751;28;20096;-81
2021/12/04 15:55:53;;;;;;;26.85;14.75;;;5.10;99.90;;;;;;5107134;28;20043;-81
2021/12/04 15:58:22;;;;;;;25.20;13.85;;;5.10;99.90;;;;;;5121976;28;20043;-81
2021/12/04 16:00:55;;;;;;;26.23;14.90;;;5.10;99.90;;;;;;5123410;28;20039;-81
2021/12/04 16:03:26;;;;;;;24.20;14.52;;;5.10;99.90;;;;;;5123218;28;20035;-81
2021/12/04 16:05:56;;;;;;;22.75;12.35;;;5.00;99.90;;;;;;5122867;27;20039;-82
2021/12/04 16:08:27;;;;;;;24.92;13.27;;;5.10;99.90;;;;;;5124463;28;20551;-82
2021/12/04 16:10:54;;;;;;;22.10;12.20;;;5.10;99.90;;;;;;5123516;28;20432;-82
2021/12/04 16:13:34;;;;;;;23.15;12.63;;;5.00;99.90;;;;;;5123218;28;20479;-81
2021/12/04 16:16:19;;;;;;;22.52;12.82;;;5.10;99.90;;;;;;5124432;27;20501;-82
2021/12/04 16:18:46;;;;;;;20.23;11.85;;;5.10;99.90;;;;;;5124236;27;20127;-82
2021/12/04 16:21:14;;;;;;;20.17;11.05;;;5.10;99.90;;;;;;5103446;28;20035;-82
2021/12/04 16:23:41;;;;;;;21.73;12.15;;;5.10;99.90;;;;;;5123584;28;20112;-82
2021/12/04 16:26:12;;;;;;;20.23;11.30;;;5.10;99.90;;;;;;5096018;28;20063;-83
2021/12/04 16:35:09;;;;;;;24.15;14.05;;;5.10;99.90;;;;;;5112412;27;20039;-82
2021/12/04 16:39:33;;;;;;;19.02;11.32;;;5.10;99.90;;;;;;5127902;27;20586;-83